sensor_id;sensor_type;location;lat;lon;timestamp;temperature;humidity
36548;DHT22;22551;52.206;4.856;2022-12-18T00:02:58;-2.60;99.90
36548;DHT22;22551;52.206;4.856;2022-12-18T00:08:00;-2.50;99.90
36548;DHT22;22551;52.206;4.856;2022-12-18T00:13:05;-2.50;99.90
36548;DHT22;22551;52.206;4.856;2022-12-18T00:18:15;-2.50;99.90
36548;DHT22;22551;52.206;4.856;2022-12-18T00:23:17;-2.50;99.90
36548;DHT22;22551;52.206;4.856;2022-12-18T00:28:21;-2.60;99.90
36548;DHT22;22551;52.206;4.856;2022-12-18T00:33:28;-2.50;99.90
36548;DHT22;22551;52.206;4.856;2022-12-18T00:38:31;-2.50;99.90
36548;DHT22;22551;52.206;4.856;2022-12-18T00:43:36;-2.60;99.90
36548;DHT22;22551;52.206;4.856;2022-12-18T00:48:42;-2.50;99.90
36548;DHT22;22551;52.206;4.856;2022-12-18T00:53:44;-2.60;99.90
36548;DHT22;22551;52.206;4.856;2022-12-18T00:58:47;-2.60;99.90
36548;DHT22;22551;52.206;4.856;2022-12-18T01:03:55;-2.60;99.90
36548;DHT22;22551;52.206;4.856;2022-12-18T01:09:00;-2.60;99.90
36548;DHT22;22551;52.206;4.856;2022-12-18T01:14:02;-2.60;99.90
36548;DHT22;22551;52.206;4.856;2022-12-18T01:19:06;-2.60;99.90
36548;DHT22;22551;52.206;4.856;2022-12-18T01:24:12;-2.60;99.90
36548;DHT22;22551;52.206;4.856;2022-12-18T01:29:14;-2.60;99.90
36548;DHT22;22551;52.206;4.856;2022-12-18T01:34:18;-2.70;99.90
36548;DHT22;22551;52.206;4.856;2022-12-18T01:39:23;-2.80;99.90
36548;DHT22;22551;52.206;4.856;2022-12-18T01:44:58;-2.80;99.90
36548;DHT22;22551;52.206;4.856;2022-12-18T01:50:07;-2.80;99.90
36548;DHT22;22551;52.206;4.856;2022-12-18T01:55:13;-2.80;99.90
36548;DHT22;22551;52.206;4.856;2022-12-18T02:00:18;-2.90;99.90
36548;DHT22;22551;52.206;4.856;2022-12-18T02:05:30;-2.90;99.90
36548;DHT22;22551;52.206;4.856;2022-12-18T02:10:46;-2.80;99.90
36548;DHT22;22551;52.206;4.856;2022-12-18T02:15:59;-2.80;99.90
36548;DHT22;22551;52.206;4.856;2022-12-18T02:21:15;-2.80;99.90
36548;DHT22;22551;52.206;4.856;2022-12-18T02:26:26;-3.00;99.90
36548;DHT22;22551;52.206;4.856;2022-12-18T02:31:36;-2.90;99.90
36548;DHT22;22551;52.206;4.856;2022-12-18T02:36:44;-3.00;99.90
36548;DHT22;22551;52.206;4.856;2022-12-18T02:41:49;-3.00;99.90
36548;DHT22;22551;52.206;4.856;2022-12-18T02:46:55;-3.10;99.90
36548;DHT22;22551;52.206;4.856;2022-12-18T02:52:05;-3.10;99.90
36548;DHT22;22551;52.206;4.856;2022-12-18T02:57:18;-3.10;99.90
36548;DHT22;22551;52.206;4.856;2022-12-18T03:02:26;-3.10;99.90
36548;DHT22;22551;52.206;4.856;2022-12-18T03:07:37;-3.20;99.90
36548;DHT22;22551;52.206;4.856;2022-12-18T03:12:45;-3.20;99.90
36548;DHT22;22551;52.206;4.856;2022-12-18T03:17:52;-3.20;99.90
36548;DHT22;22551;52.206;4.856;2022-12-18T03:23:02;-3.30;99.90
36548;DHT22;22551;52.206;4.856;2022-12-18T03:28:12;-3.40;99.90
36548;DHT22;22551;52.206;4.856;2022-12-18T03:33:23;-3.40;99.90
36548;DHT22;22551;52.206;4.856;2022-12-18T03:38:27;-3.40;99.90
36548;DHT22;22551;52.206;4.856;2022-12-18T03:43:39;-3.40;99.90
36548;DHT22;22551;52.206;4.856;2022-12-18T03:48:55;-3.40;99.90
36548;DHT22;22551;52.206;4.856;2022-12-18T03:54:03;-3.50;99.90
36548;DHT22;22551;52.206;4.856;2022-12-18T03:59:08;-3.50;99.90
36548;DHT22;22551;52.206;4.856;2022-12-18T04:04:13;-3.60;99.90
36548;DHT22;22551;52.206;4.856;2022-12-18T04:09:17;-3.60;99.90
36548;DHT22;22551;52.206;4.856;2022-12-18T04:14:21;-3.70;99.90
36548;DHT22;22551;52.206;4.856;2022-12-18T04:19:24;-3.80;99.90
36548;DHT22;22551;52.206;4.856;2022-12-18T04:24:26;-3.90;99.90
36548;DHT22;22551;52.206;4.856;2022-12-18T04:29:30;-4.00;99.90
36548;DHT22;22551;52.206;4.856;2022-12-18T04:34:32;-4.00;99.90
36548;DHT22;22551;52.206;4.856;2022-12-18T04:39:34;-4.10;99.90
36548;DHT22;22551;52.206;4.856;2022-12-18T04:44:38;-4.20;99.90
36548;DHT22;22551;52.206;4.856;2022-12-18T04:49:41;-4.20;99.90
36548;DHT22;22551;52.206;4.856;2022-12-18T04:54:43;-4.30;99.90
36548;DHT22;22551;52.206;4.856;2022-12-18T04:59:48;-4.40;99.90
36548;DHT22;22551;52.206;4.856;2022-12-18T05:04:50;-4.50;99.90
36548;DHT22;22551;52.206;4.856;2022-12-18T05:09:52;-4.50;99.90
36548;DHT22;22551;52.206;4.856;2022-12-18T05:14:56;-4.60;99.90
36548;DHT22;22551;52.206;4.856;2022-12-18T05:19:58;-4.70;99.90
36548;DHT22;22551;52.206;4.856;2022-12-18T05:25:01;-4.70;99.90
36548;DHT22;22551;52.206;4.856;2022-12-18T05:30:06;-4.70;99.90
36548;DHT22;22551;52.206;4.856;2022-12-18T05:35:10;-4.70;99.90
36548;DHT22;22551;52.206;4.856;2022-12-18T05:40:13;-4.70;99.90
36548;DHT22;22551;52.206;4.856;2022-12-18T05:45:17;-4.70;99.90
36548;DHT22;22551;52.206;4.856;2022-12-18T05:50:19;-4.70;99.90
36548;DHT22;22551;52.206;4.856;2022-12-18T05:55:22;-4.70;99.90
36548;DHT22;22551;52.206;4.856;2022-12-18T06:00:25;-4.80;99.90
36548;DHT22;22551;52.206;4.856;2022-12-18T06:05:28;-4.80;99.90
36548;DHT22;22551;52.206;4.856;2022-12-18T06:10:31;-4.80;99.90
36548;DHT22;22551;52.206;4.856;2022-12-18T06:15:36;-4.80;99.90
36548;DHT22;22551;52.206;4.856;2022-12-18T06:20:39;-4.80;99.90
36548;DHT22;22551;52.206;4.856;2022-12-18T06:25:41;-4.90;99.90
36548;DHT22;22551;52.206;4.856;2022-12-18T06:30:46;-4.90;99.90
36548;DHT22;22551;52.206;4.856;2022-12-18T06:35:48;-4.90;99.90
36548;DHT22;22551;52.206;4.856;2022-12-18T06:40:51;-5.00;99.90
36548;DHT22;22551;52.206;4.856;2022-12-18T06:45:59;-5.00;99.90
36548;DHT22;22551;52.206;4.856;2022-12-18T06:51:09;-5.00;99.90
36548;DHT22;22551;52.206;4.856;2022-12-18T06:56:14;-5.00;99.90
36548;DHT22;22551;52.206;4.856;2022-12-18T07:01:23;-5.00;99.90
36548;DHT22;22551;52.206;4.856;2022-12-18T07:06:26;-5.00;99.90
36548;DHT22;22551;52.206;4.856;2022-12-18T07:11:28;-5.00;99.90
36548;DHT22;22551;52.206;4.856;2022-12-18T07:16:32;-5.00;99.90
36548;DHT22;22551;52.206;4.856;2022-12-18T07:21:36;-5.00;99.90
36548;DHT22;22551;52.206;4.856;2022-12-18T07:26:39;-5.00;99.90
36548;DHT22;22551;52.206;4.856;2022-12-18T07:31:43;-5.00;99.90
36548;DHT22;22551;52.206;4.856;2022-12-18T07:36:45;-5.10;99.90
36548;DHT22;22551;52.206;4.856;2022-12-18T07:41:50;-5.10;99.90
36548;DHT22;22551;52.206;4.856;2022-12-18T07:47:08;-5.10;99.90
36548;DHT22;22551;52.206;4.856;2022-12-18T07:52:13;-5.00;99.90
36548;DHT22;22551;52.206;4.856;2022-12-18T07:57:18;-5.00;99.90
36548;DHT22;22551;52.206;4.856;2022-12-18T08:02:25;-5.00;99.90
36548;DHT22;22551;52.206;4.856;2022-12-18T08:07:27;-4.90;99.90
36548;DHT22;22551;52.206;4.856;2022-12-18T08:12:30;-4.80;99.90
36548;DHT22;22551;52.206;4.856;2022-12-18T08:17:35;-4.80;99.90
36548;DHT22;22551;52.206;4.856;2022-12-18T08:22:39;-4.70;99.90
36548;DHT22;22551;52.206;4.856;2022-12-18T08:27:41;-4.70;99.90
36548;DHT22;22551;52.206;4.856;2022-12-18T08:32:45;-4.70;99.90
36548;DHT22;22551;52.206;4.856;2022-12-18T08:37:50;-4.60;99.90
36548;DHT22;22551;52.206;4.856;2022-12-18T08:42:54;-4.60;99.90
36548;DHT22;22551;52.206;4.856;2022-12-18T08:48:16;-4.50;99.90
36548;DHT22;22551;52.206;4.856;2022-12-18T08:53:21;-4.40;99.90
36548;DHT22;22551;52.206;4.856;2022-12-18T08:58:30;-4.30;99.90
36548;DHT22;22551;52.206;4.856;2022-12-18T09:03:47;-4.20;99.90
36548;DHT22;22551;52.206;4.856;2022-12-18T09:08:49;-4.10;99.90
36548;DHT22;22551;52.206;4.856;2022-12-18T09:13:52;-4.00;99.90
36548;DHT22;22551;52.206;4.856;2022-12-18T09:18:57;-3.90;99.90
36548;DHT22;22551;52.206;4.856;2022-12-18T09:24:01;-3.80;99.90
36548;DHT22;22551;52.206;4.856;2022-12-18T09:29:04;-3.70;99.90
36548;DHT22;22551;52.206;4.856;2022-12-18T09:34:09;-3.60;99.90
36548;DHT22;22551;52.206;4.856;2022-12-18T09:39:11;-3.50;99.90
36548;DHT22;22551;52.206;4.856;2022-12-18T09:44:21;-3.40;99.90
36548;DHT22;22551;52.206;4.856;2022-12-18T09:49:30;-3.30;99.90
36548;DHT22;22551;52.206;4.856;2022-12-18T09:54:38;-3.20;99.90
36548;DHT22;22551;52.206;4.856;2022-12-18T09:59:51;-3.20;99.90
36548;DHT22;22551;52.206;4.856;2022-12-18T10:05:07;-3.10;99.90
36548;DHT22;22551;52.206;4.856;2022-12-18T10:10:25;-3.00;99.90
36548;DHT22;22551;52.206;4.856;2022-12-18T10:15:39;-2.90;99.90
36548;DHT22;22551;52.206;4.856;2022-12-18T10:20:58;-2.80;99.90
36548;DHT22;22551;52.206;4.856;2022-12-18T10:26:08;-2.80;99.90
36548;DHT22;22551;52.206;4.856;2022-12-18T10:31:15;-2.70;99.90
36548;DHT22;22551;52.206;4.856;2022-12-18T10:36:20;-2.60;99.90
36548;DHT22;22551;52.206;4.856;2022-12-18T10:41:25;-2.60;99.90
36548;DHT22;22551;52.206;4.856;2022-12-18T10:46:28;-2.50;99.90
36548;DHT22;22551;52.206;4.856;2022-12-18T10:51:33;-2.40;99.90
36548;DHT22;22551;52.206;4.856;2022-12-18T10:56:38;-2.40;99.90
36548;DHT22;22551;52.206;4.856;2022-12-18T11:01:49;-2.30;99.90
36548;DHT22;22551;52.206;4.856;2022-12-18T11:06:58;-2.20;99.90
36548;DHT22;22551;52.206;4.856;2022-12-18T11:12:04;-2.10;99.90
36548;DHT22;22551;52.206;4.856;2022-12-18T11:17:21;-2.00;99.90
36548;DHT22;22551;52.206;4.856;2022-12-18T11:22:30;-2.00;99.90
36548;DHT22;22551;52.206;4.856;2022-12-18T11:27:33;-1.90;99.90
36548;DHT22;22551;52.206;4.856;2022-12-18T11:32:37;-1.80;99.90
36548;DHT22;22551;52.206;4.856;2022-12-18T11:37:46;-1.70;99.90
36548;DHT22;22551;52.206;4.856;2022-12-18T11:42:57;-1.70;99.90
36548;DHT22;22551;52.206;4.856;2022-12-18T11:48:05;-1.60;99.90
36548;DHT22;22551;52.206;4.856;2022-12-18T11:53:16;-1.50;99.90
36548;DHT22;22551;52.206;4.856;2022-12-18T11:58:28;-1.60;99.90
36548;DHT22;22551;52.206;4.856;2022-12-18T12:04:09;-1.50;99.90
36548;DHT22;22551;52.206;4.856;2022-12-18T12:09:51;-1.40;99.90
36548;DHT22;22551;52.206;4.856;2022-12-18T12:15:10;-1.40;99.90
36548;DHT22;22551;52.206;4.856;2022-12-18T12:20:20;-1.40;99.90
36548;DHT22;22551;52.206;4.856;2022-12-18T12:25:33;-1.30;99.90
36548;DHT22;22551;52.206;4.856;2022-12-18T12:30:44;-1.20;99.90
36548;DHT22;22551;52.206;4.856;2022-12-18T12:35:59;-1.20;99.90
36548;DHT22;22551;52.206;4.856;2022-12-18T12:41:25;-1.20;99.90
36548;DHT22;22551;52.206;4.856;2022-12-18T12:46:47;-1.10;99.90
36548;DHT22;22551;52.206;4.856;2022-12-18T12:51:57;-1.10;99.90
36548;DHT22;22551;52.206;4.856;2022-12-18T12:57:09;-1.00;99.90
36548;DHT22;22551;52.206;4.856;2022-12-18T13:02:20;-1.00;99.90
36548;DHT22;22551;52.206;4.856;2022-12-18T13:07:32;-1.00;99.90
36548;DHT22;22551;52.206;4.856;2022-12-18T13:12:51;-0.90;99.90
36548;DHT22;22551;52.206;4.856;2022-12-18T13:18:19;-0.90;99.90
36548;DHT22;22551;52.206;4.856;2022-12-18T13:23:31;-0.90;99.90
36548;DHT22;22551;52.206;4.856;2022-12-18T13:28:52;-1.00;99.90
36548;DHT22;22551;52.206;4.856;2022-12-18T13:34:14;-1.00;99.90
36548;DHT22;22551;52.206;4.856;2022-12-18T13:39:24;-0.90;99.90
36548;DHT22;22551;52.206;4.856;2022-12-18T13:44:36;-1.00;99.90
36548;DHT22;22551;52.206;4.856;2022-12-18T13:49:43;-0.90;99.90
36548;DHT22;22551;52.206;4.856;2022-12-18T13:54:50;-0.90;99.90
36548;DHT22;22551;52.206;4.856;2022-12-18T14:00:14;-0.90;99.90
36548;DHT22;22551;52.206;4.856;2022-12-18T14:05:27;-0.90;99.90
36548;DHT22;22551;52.206;4.856;2022-12-18T14:10:31;-0.90;99.90
36548;DHT22;22551;52.206;4.856;2022-12-18T14:15:41;-0.90;99.90
36548;DHT22;22551;52.206;4.856;2022-12-18T14:20:49;-0.90;99.90
36548;DHT22;22551;52.206;4.856;2022-12-18T14:25:55;-0.90;99.90
36548;DHT22;22551;52.206;4.856;2022-12-18T14:30:59;-0.90;99.90
36548;DHT22;22551;52.206;4.856;2022-12-18T14:36:03;-0.80;99.90
36548;DHT22;22551;52.206;4.856;2022-12-18T14:41:12;-0.90;99.90
36548;DHT22;22551;52.206;4.856;2022-12-18T14:46:32;-0.80;99.90
36548;DHT22;22551;52.206;4.856;2022-12-18T14:51:36;-0.80;99.90
36548;DHT22;22551;52.206;4.856;2022-12-18T14:56:44;-0.80;99.90
36548;DHT22;22551;52.206;4.856;2022-12-18T15:01:58;-0.80;99.90
36548;DHT22;22551;52.206;4.856;2022-12-18T15:07:07;-0.80;99.90
36548;DHT22;22551;52.206;4.856;2022-12-18T15:12:25;-0.80;99.90
36548;DHT22;22551;52.206;4.856;2022-12-18T15:17:33;-0.80;99.90
36548;DHT22;22551;52.206;4.856;2022-12-18T15:22:39;-0.80;99.90
36548;DHT22;22551;52.206;4.856;2022-12-18T15:27:46;-0.80;99.90
36548;DHT22;22551;52.206;4.856;2022-12-18T15:32:52;-0.80;99.90
36548;DHT22;22551;52.206;4.856;2022-12-18T15:37:57;-0.80;99.90
36548;DHT22;22551;52.206;4.856;2022-12-18T15:43:11;-0.70;99.90
36548;DHT22;22551;52.206;4.856;2022-12-18T15:48:34;-0.70;99.90
36548;DHT22;22551;52.206;4.856;2022-12-18T15:53:41;-0.70;99.90
36548;DHT22;22551;52.206;4.856;2022-12-18T15:58:45;-0.70;99.90
36548;DHT22;22551;52.206;4.856;2022-12-18T16:03:52;-0.70;99.90
36548;DHT22;22551;52.206;4.856;2022-12-18T16:08:56;-0.70;99.90
36548;DHT22;22551;52.206;4.856;2022-12-18T16:14:00;-0.70;99.90
36548;DHT22;22551;52.206;4.856;2022-12-18T16:19:06;-0.60;99.90
36548;DHT22;22551;52.206;4.856;2022-12-18T16:24:17;-0.60;99.90
36548;DHT22;22551;52.206;4.856;2022-12-18T16:29:24;-0.60;99.90
36548;DHT22;22551;52.206;4.856;2022-12-18T16:34:39;-0.60;99.90
36548;DHT22;22551;52.206;4.856;2022-12-18T16:39:45;-0.50;99.90
36548;DHT22;22551;52.206;4.856;2022-12-18T16:44:49;-0.60;99.90
36548;DHT22;22551;52.206;4.856;2022-12-18T16:49:57;-0.50;99.90
36548;DHT22;22551;52.206;4.856;2022-12-18T16:55:01;-0.50;99.90
36548;DHT22;22551;52.206;4.856;2022-12-18T17:00:05;-0.50;99.90
36548;DHT22;22551;52.206;4.856;2022-12-18T17:05:10;-0.50;99.90
36548;DHT22;22551;52.206;4.856;2022-12-18T17:10:13;-0.50;99.90
36548;DHT22;22551;52.206;4.856;2022-12-18T17:15:16;-0.50;99.90
36548;DHT22;22551;52.206;4.856;2022-12-18T17:20:20;-0.40;99.90
36548;DHT22;22551;52.206;4.856;2022-12-18T17:25:22;-0.40;99.90
36548;DHT22;22551;52.206;4.856;2022-12-18T17:30:24;-0.40;99.90
36548;DHT22;22551;52.206;4.856;2022-12-18T17:35:29;-0.40;99.90
36548;DHT22;22551;52.206;4.856;2022-12-18T17:40:41;-0.40;99.90
36548;DHT22;22551;52.206;4.856;2022-12-18T17:45:46;-0.30;99.90
36548;DHT22;22551;52.206;4.856;2022-12-18T17:50:51;-0.30;99.90
36548;DHT22;22551;52.206;4.856;2022-12-18T17:55:54;-0.30;99.90
36548;DHT22;22551;52.206;4.856;2022-12-18T18:00:57;-0.20;99.90
36548;DHT22;22551;52.206;4.856;2022-12-18T18:06:02;-0.20;99.90
36548;DHT22;22551;52.206;4.856;2022-12-18T18:11:06;-0.10;99.90
36548;DHT22;22551;52.206;4.856;2022-12-18T18:16:28;-0.20;99.90
36548;DHT22;22551;52.206;4.856;2022-12-18T18:21:37;-0.20;99.90
36548;DHT22;22551;52.206;4.856;2022-12-18T18:26:41;-0.10;99.90
36548;DHT22;22551;52.206;4.856;2022-12-18T18:31:43;-0.10;99.90
36548;DHT22;22551;52.206;4.856;2022-12-18T18:36:52;-0.10;99.90
36548;DHT22;22551;52.206;4.856;2022-12-18T18:42:00;-0.10;99.90
36548;DHT22;22551;52.206;4.856;2022-12-18T18:47:05;0.00;99.90
36548;DHT22;22551;52.206;4.856;2022-12-18T18:52:17;0.00;99.90
36548;DHT22;22551;52.206;4.856;2022-12-18T18:57:27;0.00;99.90
36548;DHT22;22551;52.206;4.856;2022-12-18T19:02:38;0.00;99.90
36548;DHT22;22551;52.206;4.856;2022-12-18T19:07:54;0.10;99.90
36548;DHT22;22551;52.206;4.856;2022-12-18T19:12:58;0.10;99.90
36548;DHT22;22551;52.206;4.856;2022-12-18T19:18:18;0.20;99.90
36548;DHT22;22551;52.206;4.856;2022-12-18T19:23:29;0.30;99.90
36548;DHT22;22551;52.206;4.856;2022-12-18T19:28:35;0.30;99.90
36548;DHT22;22551;52.206;4.856;2022-12-18T19:33:39;0.30;99.90
36548;DHT22;22551;52.206;4.856;2022-12-18T19:38:47;0.30;99.90
36548;DHT22;22551;52.206;4.856;2022-12-18T19:44:00;0.30;99.90
36548;DHT22;22551;52.206;4.856;2022-12-18T19:49:05;0.40;99.90
36548;DHT22;22551;52.206;4.856;2022-12-18T19:54:11;0.40;99.90
36548;DHT22;22551;52.206;4.856;2022-12-18T19:59:17;0.40;99.90
36548;DHT22;22551;52.206;4.856;2022-12-18T20:04:21;0.40;99.90
36548;DHT22;22551;52.206;4.856;2022-12-18T20:09:26;0.40;99.90
36548;DHT22;22551;52.206;4.856;2022-12-18T20:14:30;0.40;99.90
36548;DHT22;22551;52.206;4.856;2022-12-18T20:19:34;0.50;99.90
36548;DHT22;22551;52.206;4.856;2022-12-18T20:24:38;0.50;99.90
36548;DHT22;22551;52.206;4.856;2022-12-18T20:29:41;0.50;99.90
36548;DHT22;22551;52.206;4.856;2022-12-18T20:34:43;0.50;99.90
36548;DHT22;22551;52.206;4.856;2022-12-18T20:39:47;0.50;99.90
36548;DHT22;22551;52.206;4.856;2022-12-18T20:45:06;0.50;99.90
36548;DHT22;22551;52.206;4.856;2022-12-18T20:50:11;0.50;99.90
36548;DHT22;22551;52.206;4.856;2022-12-18T20:55:25;0.50;99.90
36548;DHT22;22551;52.206;4.856;2022-12-18T21:00:28;0.60;99.90
36548;DHT22;22551;52.206;4.856;2022-12-18T21:05:31;0.60;99.90
36548;DHT22;22551;52.206;4.856;2022-12-18T21:10:35;0.60;99.90
36548;DHT22;22551;52.206;4.856;2022-12-18T21:15:42;0.60;99.90
36548;DHT22;22551;52.206;4.856;2022-12-18T21:20:51;0.60;99.90
36548;DHT22;22551;52.206;4.856;2022-12-18T21:26:14;0.60;99.90
36548;DHT22;22551;52.206;4.856;2022-12-18T21:31:22;0.60;99.90
36548;DHT22;22551;52.206;4.856;2022-12-18T21:36:26;0.60;99.90
36548;DHT22;22551;52.206;4.856;2022-12-18T21:41:30;0.60;99.90
36548;DHT22;22551;52.206;4.856;2022-12-18T21:46:51;0.60;99.90
36548;DHT22;22551;52.206;4.856;2022-12-18T21:51:55;0.60;99.90
36548;DHT22;22551;52.206;4.856;2022-12-18T21:57:01;0.70;99.90
36548;DHT22;22551;52.206;4.856;2022-12-18T22:02:08;0.70;99.90
36548;DHT22;22551;52.206;4.856;2022-12-18T22:07:12;0.70;99.90
36548;DHT22;22551;52.206;4.856;2022-12-18T22:12:21;0.80;99.90
36548;DHT22;22551;52.206;4.856;2022-12-18T22:17:37;0.70;99.90
36548;DHT22;22551;52.206;4.856;2022-12-18T22:22:40;0.70;99.90
36548;DHT22;22551;52.206;4.856;2022-12-18T22:27:44;0.70;99.90
36548;DHT22;22551;52.206;4.856;2022-12-18T22:33:06;0.70;99.90
36548;DHT22;22551;52.206;4.856;2022-12-18T22:38:10;0.80;99.90
36548;DHT22;22551;52.206;4.856;2022-12-18T22:43:13;0.70;99.90
36548;DHT22;22551;52.206;4.856;2022-12-18T22:48:16;0.70;99.90
36548;DHT22;22551;52.206;4.856;2022-12-18T22:53:22;0.80;99.90
36548;DHT22;22551;52.206;4.856;2022-12-18T22:58:26;0.80;99.90
36548;DHT22;22551;52.206;4.856;2022-12-18T23:03:30;0.80;99.90
36548;DHT22;22551;52.206;4.856;2022-12-18T23:08:33;0.90;99.90
36548;DHT22;22551;52.206;4.856;2022-12-18T23:13:38;0.90;99.90
36548;DHT22;22551;52.206;4.856;2022-12-18T23:18:44;0.90;99.90
36548;DHT22;22551;52.206;4.856;2022-12-18T23:23:47;0.90;99.90
36548;DHT22;22551;52.206;4.856;2022-12-18T23:28:53;0.90;99.90
36548;DHT22;22551;52.206;4.856;2022-12-18T23:33:57;1.00;99.90
36548;DHT22;22551;52.206;4.856;2022-12-18T23:39:00;0.90;99.90
36548;DHT22;22551;52.206;4.856;2022-12-18T23:44:04;1.00;99.90
36548;DHT22;22551;52.206;4.856;2022-12-18T23:49:07;1.00;99.90
36548;DHT22;22551;52.206;4.856;2022-12-18T23:54:10;1.00;99.90
36548;DHT22;22551;52.206;4.856;2022-12-18T23:59:15;1.10;99.90
